sensor_id;sensor_type;location;lat;lon;timestamp;P1;durP1;ratioP1;P2;durP2;ratioP2
3280;SDS011;1652;51.318;6.202;2023-04-23T00:02:01;68.03;;;36.70;;
3280;SDS011;1652;51.318;6.202;2023-04-23T00:04:31;78.20;;;37.67;;
3280;SDS011;1652;51.318;6.202;2023-04-23T00:07:02;77.00;;;36.63;;
3280;SDS011;1652;51.318;6.202;2023-04-23T00:09:30;72.20;;;37.43;;
3280;SDS011;1652;51.318;6.202;2023-04-23T00:12:00;62.77;;;32.60;;
3280;SDS011;1652;51.318;6.202;2023-04-23T00:14:27;52.70;;;30.97;;
3280;SDS011;1652;51.318;6.202;2023-04-23T00:16:54;60.13;;;32.00;;
3280;SDS011;1652;51.318;6.202;2023-04-23T00:19:21;59.27;;;30.67;;
3280;SDS011;1652;51.318;6.202;2023-04-23T00:21:48;58.20;;;29.63;;
3280;SDS011;1652;51.318;6.202;2023-04-23T00:24:15;53.63;;;29.13;;
3280;SDS011;1652;51.318;6.202;2023-04-23T00:26:42;50.60;;;28.20;;
3280;SDS011;1652;51.318;6.202;2023-04-23T00:29:09;52.87;;;28.87;;
3280;SDS011;1652;51.318;6.202;2023-04-23T00:31:36;49.40;;;27.97;;
3280;SDS011;1652;51.318;6.202;2023-04-23T00:34:02;49.33;;;28.20;;
3280;SDS011;1652;51.318;6.202;2023-04-23T00:36:29;50.63;;;28.40;;
3280;SDS011;1652;51.318;6.202;2023-04-23T00:38:57;53.47;;;29.00;;
3280;SDS011;1652;51.318;6.202;2023-04-23T00:41:23;52.87;;;30.50;;
3280;SDS011;1652;51.318;6.202;2023-04-23T00:43:52;58.50;;;29.70;;
3280;SDS011;1652;51.318;6.202;2023-04-23T00:46:23;54.03;;;28.90;;
3280;SDS011;1652;51.318;6.202;2023-04-23T00:48:51;53.17;;;27.30;;
3280;SDS011;1652;51.318;6.202;2023-04-23T00:51:22;64.97;;;29.90;;
3280;SDS011;1652;51.318;6.202;2023-04-23T00:53:49;56.37;;;28.60;;
3280;SDS011;1652;51.318;6.202;2023-04-23T00:56:16;50.97;;;26.40;;
3280;SDS011;1652;51.318;6.202;2023-04-23T00:58:43;50.00;;;28.57;;
3280;SDS011;1652;51.318;6.202;2023-04-23T01:01:11;53.13;;;29.33;;
3280;SDS011;1652;51.318;6.202;2023-04-23T01:03:39;62.93;;;29.70;;
3280;SDS011;1652;51.318;6.202;2023-04-23T01:06:08;54.97;;;29.00;;
3280;SDS011;1652;51.318;6.202;2023-04-23T01:08:35;53.63;;;29.13;;
3280;SDS011;1652;51.318;6.202;2023-04-23T01:11:03;54.83;;;28.20;;
3280;SDS011;1652;51.318;6.202;2023-04-23T01:13:31;53.10;;;29.03;;
3280;SDS011;1652;51.318;6.202;2023-04-23T01:15:58;54.87;;;30.07;;
3280;SDS011;1652;51.318;6.202;2023-04-23T01:18:25;54.13;;;29.63;;
3280;SDS011;1652;51.318;6.202;2023-04-23T01:20:52;60.70;;;30.07;;
3280;SDS011;1652;51.318;6.202;2023-04-23T01:23:19;57.90;;;29.90;;
3280;SDS011;1652;51.318;6.202;2023-04-23T01:25:47;56.67;;;29.20;;
3280;SDS011;1652;51.318;6.202;2023-04-23T01:28:14;56.77;;;29.83;;
3280;SDS011;1652;51.318;6.202;2023-04-23T01:30:42;51.77;;;30.70;;
3280;SDS011;1652;51.318;6.202;2023-04-23T01:35:50;48.80;;;27.97;;
3280;SDS011;1652;51.318;6.202;2023-04-23T01:38:17;62.27;;;29.33;;
3280;SDS011;1652;51.318;6.202;2023-04-23T01:40:46;61.63;;;29.30;;
3280;SDS011;1652;51.318;6.202;2023-04-23T01:43:13;53.23;;;30.00;;
3280;SDS011;1652;51.318;6.202;2023-04-23T01:45:40;62.40;;;31.07;;
3280;SDS011;1652;51.318;6.202;2023-04-23T01:48:07;53.57;;;28.63;;
3280;SDS011;1652;51.318;6.202;2023-04-23T01:50:35;53.63;;;29.47;;
3280;SDS011;1652;51.318;6.202;2023-04-23T01:53:02;54.73;;;28.40;;
3280;SDS011;1652;51.318;6.202;2023-04-23T01:55:29;50.10;;;28.27;;
3280;SDS011;1652;51.318;6.202;2023-04-23T01:57:57;54.20;;;29.73;;
3280;SDS011;1652;51.318;6.202;2023-04-23T02:00:24;51.97;;;30.10;;
3280;SDS011;1652;51.318;6.202;2023-04-23T02:02:50;49.33;;;28.00;;
3280;SDS011;1652;51.318;6.202;2023-04-23T02:05:19;57.60;;;29.97;;
3280;SDS011;1652;51.318;6.202;2023-04-23T02:07:47;58.20;;;30.07;;
3280;SDS011;1652;51.318;6.202;2023-04-23T02:10:16;58.03;;;29.20;;
3280;SDS011;1652;51.318;6.202;2023-04-23T02:12:44;59.53;;;29.70;;
3280;SDS011;1652;51.318;6.202;2023-04-23T02:17:36;53.60;;;29.83;;
3280;SDS011;1652;51.318;6.202;2023-04-23T02:20:08;57.77;;;31.40;;
3280;SDS011;1652;51.318;6.202;2023-04-23T02:22:37;62.33;;;31.57;;
3280;SDS011;1652;51.318;6.202;2023-04-23T02:25:05;52.23;;;31.00;;
3280;SDS011;1652;51.318;6.202;2023-04-23T02:27:33;57.00;;;30.33;;
3280;SDS011;1652;51.318;6.202;2023-04-23T02:30:00;52.10;;;29.40;;
3280;SDS011;1652;51.318;6.202;2023-04-23T02:32:28;53.90;;;29.60;;
3280;SDS011;1652;51.318;6.202;2023-04-23T02:34:56;56.03;;;30.43;;
3280;SDS011;1652;51.318;6.202;2023-04-23T02:37:24;54.67;;;30.70;;
3280;SDS011;1652;51.318;6.202;2023-04-23T02:39:52;60.63;;;31.53;;
3280;SDS011;1652;51.318;6.202;2023-04-23T02:42:19;54.30;;;30.00;;
3280;SDS011;1652;51.318;6.202;2023-04-23T02:44:46;55.80;;;30.03;;
3280;SDS011;1652;51.318;6.202;2023-04-23T02:47:13;52.30;;;29.37;;
3280;SDS011;1652;51.318;6.202;2023-04-23T02:49:39;51.03;;;31.07;;
3280;SDS011;1652;51.318;6.202;2023-04-23T02:52:06;50.53;;;27.93;;
3280;SDS011;1652;51.318;6.202;2023-04-23T02:54:33;48.50;;;28.17;;
3280;SDS011;1652;51.318;6.202;2023-04-23T02:57:02;54.70;;;30.47;;
3280;SDS011;1652;51.318;6.202;2023-04-23T02:59:30;51.80;;;30.77;;
3280;SDS011;1652;51.318;6.202;2023-04-23T03:01:57;47.47;;;28.20;;
3280;SDS011;1652;51.318;6.202;2023-04-23T03:04:24;51.50;;;28.77;;
3280;SDS011;1652;51.318;6.202;2023-04-23T03:06:51;52.47;;;29.40;;
3280;SDS011;1652;51.318;6.202;2023-04-23T03:09:18;49.80;;;29.00;;
3280;SDS011;1652;51.318;6.202;2023-04-23T03:11:45;49.77;;;27.90;;
3280;SDS011;1652;51.318;6.202;2023-04-23T03:14:12;47.07;;;26.93;;
3280;SDS011;1652;51.318;6.202;2023-04-23T03:16:38;45.80;;;27.40;;
3280;SDS011;1652;51.318;6.202;2023-04-23T03:19:05;42.97;;;26.00;;
3280;SDS011;1652;51.318;6.202;2023-04-23T03:21:32;42.47;;;26.70;;
3280;SDS011;1652;51.318;6.202;2023-04-23T03:23:59;43.60;;;26.10;;
3280;SDS011;1652;51.318;6.202;2023-04-23T03:26:26;39.40;;;25.67;;
3280;SDS011;1652;51.318;6.202;2023-04-23T03:28:53;38.53;;;24.77;;
3280;SDS011;1652;51.318;6.202;2023-04-23T03:31:20;40.30;;;25.20;;
3280;SDS011;1652;51.318;6.202;2023-04-23T03:33:47;42.17;;;25.33;;
3280;SDS011;1652;51.318;6.202;2023-04-23T03:36:14;48.70;;;25.07;;
3280;SDS011;1652;51.318;6.202;2023-04-23T03:38:41;37.17;;;24.17;;
3280;SDS011;1652;51.318;6.202;2023-04-23T03:41:08;40.40;;;26.37;;
3280;SDS011;1652;51.318;6.202;2023-04-23T03:43:35;36.80;;;24.50;;
3280;SDS011;1652;51.318;6.202;2023-04-23T03:46:02;39.33;;;24.80;;
3280;SDS011;1652;51.318;6.202;2023-04-23T03:48:29;39.83;;;23.80;;
3280;SDS011;1652;51.318;6.202;2023-04-23T03:50:56;41.70;;;24.33;;
3280;SDS011;1652;51.318;6.202;2023-04-23T03:53:23;37.13;;;23.30;;
3280;SDS011;1652;51.318;6.202;2023-04-23T03:55:50;39.63;;;23.13;;
3280;SDS011;1652;51.318;6.202;2023-04-23T03:58:17;34.40;;;22.03;;
3280;SDS011;1652;51.318;6.202;2023-04-23T04:00:43;31.13;;;21.67;;
3280;SDS011;1652;51.318;6.202;2023-04-23T04:03:11;31.90;;;21.83;;
3280;SDS011;1652;51.318;6.202;2023-04-23T04:05:38;34.43;;;21.47;;
3280;SDS011;1652;51.318;6.202;2023-04-23T04:08:04;29.30;;;20.57;;
3280;SDS011;1652;51.318;6.202;2023-04-23T04:10:31;31.30;;;21.00;;
3280;SDS011;1652;51.318;6.202;2023-04-23T04:12:58;37.70;;;23.07;;
3280;SDS011;1652;51.318;6.202;2023-04-23T04:15:25;34.40;;;21.33;;
3280;SDS011;1652;51.318;6.202;2023-04-23T04:17:52;39.87;;;22.90;;
3280;SDS011;1652;51.318;6.202;2023-04-23T04:20:19;32.30;;;21.87;;
3280;SDS011;1652;51.318;6.202;2023-04-23T04:22:46;36.70;;;23.37;;
3280;SDS011;1652;51.318;6.202;2023-04-23T04:25:13;31.27;;;21.80;;
3280;SDS011;1652;51.318;6.202;2023-04-23T04:27:40;32.47;;;23.17;;
3280;SDS011;1652;51.318;6.202;2023-04-23T04:30:07;28.77;;;20.80;;
3280;SDS011;1652;51.318;6.202;2023-04-23T04:32:34;33.77;;;22.60;;
3280;SDS011;1652;51.318;6.202;2023-04-23T04:35:04;29.30;;;20.70;;
3280;SDS011;1652;51.318;6.202;2023-04-23T04:37:32;31.87;;;21.10;;
3280;SDS011;1652;51.318;6.202;2023-04-23T04:39:59;28.77;;;19.77;;
3280;SDS011;1652;51.318;6.202;2023-04-23T04:42:26;31.10;;;18.97;;
3280;SDS011;1652;51.318;6.202;2023-04-23T04:44:53;26.70;;;18.77;;
3280;SDS011;1652;51.318;6.202;2023-04-23T04:47:23;23.40;;;18.00;;
3280;SDS011;1652;51.318;6.202;2023-04-23T04:49:51;27.00;;;18.23;;
3280;SDS011;1652;51.318;6.202;2023-04-23T04:52:18;24.97;;;17.20;;
3280;SDS011;1652;51.318;6.202;2023-04-23T04:54:45;24.40;;;17.47;;
3280;SDS011;1652;51.318;6.202;2023-04-23T04:57:12;20.50;;;16.33;;
3280;SDS011;1652;51.318;6.202;2023-04-23T04:59:39;20.67;;;16.47;;
3280;SDS011;1652;51.318;6.202;2023-04-23T05:02:06;22.83;;;16.90;;
3280;SDS011;1652;51.318;6.202;2023-04-23T05:04:33;21.87;;;15.40;;
3280;SDS011;1652;51.318;6.202;2023-04-23T05:07:00;22.73;;;15.93;;
3280;SDS011;1652;51.318;6.202;2023-04-23T05:09:27;20.50;;;15.97;;
3280;SDS011;1652;51.318;6.202;2023-04-23T05:11:53;20.00;;;15.93;;
3280;SDS011;1652;51.318;6.202;2023-04-23T05:14:21;20.13;;;15.87;;
3280;SDS011;1652;51.318;6.202;2023-04-23T05:16:48;16.17;;;14.17;;
3280;SDS011;1652;51.318;6.202;2023-04-23T05:19:15;21.20;;;15.47;;
3280;SDS011;1652;51.318;6.202;2023-04-23T05:21:41;17.23;;;13.83;;
3280;SDS011;1652;51.318;6.202;2023-04-23T05:24:08;24.93;;;15.70;;
3280;SDS011;1652;51.318;6.202;2023-04-23T05:26:35;23.03;;;15.00;;
3280;SDS011;1652;51.318;6.202;2023-04-23T05:29:02;16.23;;;13.60;;
3280;SDS011;1652;51.318;6.202;2023-04-23T05:31:29;18.50;;;14.50;;
3280;SDS011;1652;51.318;6.202;2023-04-23T05:33:57;16.50;;;12.83;;
3280;SDS011;1652;51.318;6.202;2023-04-23T05:36:23;15.27;;;13.10;;
3280;SDS011;1652;51.318;6.202;2023-04-23T05:38:51;16.83;;;13.00;;
3280;SDS011;1652;51.318;6.202;2023-04-23T05:41:18;14.70;;;13.20;;
3280;SDS011;1652;51.318;6.202;2023-04-23T05:43:44;16.80;;;11.40;;
3280;SDS011;1652;51.318;6.202;2023-04-23T05:46:11;12.67;;;11.47;;
3280;SDS011;1652;51.318;6.202;2023-04-23T05:48:38;13.23;;;11.93;;
3280;SDS011;1652;51.318;6.202;2023-04-23T05:51:05;12.77;;;11.47;;
3280;SDS011;1652;51.318;6.202;2023-04-23T05:53:32;14.13;;;12.63;;
3280;SDS011;1652;51.318;6.202;2023-04-23T05:55:59;12.30;;;11.10;;
3280;SDS011;1652;51.318;6.202;2023-04-23T05:58:26;15.67;;;11.97;;
3280;SDS011;1652;51.318;6.202;2023-04-23T06:00:53;16.27;;;13.03;;
3280;SDS011;1652;51.318;6.202;2023-04-23T06:03:20;12.40;;;11.20;;
3280;SDS011;1652;51.318;6.202;2023-04-23T06:05:47;14.03;;;11.80;;
3280;SDS011;1652;51.318;6.202;2023-04-23T06:08:14;14.97;;;11.20;;
3280;SDS011;1652;51.318;6.202;2023-04-23T06:10:41;14.33;;;11.73;;
3280;SDS011;1652;51.318;6.202;2023-04-23T06:13:08;12.13;;;10.80;;
3280;SDS011;1652;51.318;6.202;2023-04-23T06:15:36;14.80;;;9.83;;
3280;SDS011;1652;51.318;6.202;2023-04-23T06:18:03;8.53;;;7.90;;
3280;SDS011;1652;51.318;6.202;2023-04-23T06:20:31;8.33;;;7.53;;
3280;SDS011;1652;51.318;6.202;2023-04-23T06:22:58;9.40;;;7.10;;
3280;SDS011;1652;51.318;6.202;2023-04-23T06:25:25;7.67;;;7.07;;
3280;SDS011;1652;51.318;6.202;2023-04-23T06:27:52;7.77;;;7.27;;
3280;SDS011;1652;51.318;6.202;2023-04-23T06:30:18;13.40;;;7.60;;
3280;SDS011;1652;51.318;6.202;2023-04-23T06:32:46;9.93;;;7.37;;
3280;SDS011;1652;51.318;6.202;2023-04-23T06:35:13;6.87;;;6.17;;
3280;SDS011;1652;51.318;6.202;2023-04-23T06:37:39;6.93;;;6.40;;
3280;SDS011;1652;51.318;6.202;2023-04-23T06:40:06;8.03;;;6.57;;
3280;SDS011;1652;51.318;6.202;2023-04-23T06:42:33;11.13;;;6.13;;
3280;SDS011;1652;51.318;6.202;2023-04-23T06:45:00;6.90;;;6.40;;
3280;SDS011;1652;51.318;6.202;2023-04-23T06:47:31;9.50;;;6.27;;
3280;SDS011;1652;51.318;6.202;2023-04-23T06:49:58;6.13;;;5.40;;
3280;SDS011;1652;51.318;6.202;2023-04-23T06:52:25;5.90;;;5.07;;
3280;SDS011;1652;51.318;6.202;2023-04-23T06:54:52;6.13;;;5.60;;
3280;SDS011;1652;51.318;6.202;2023-04-23T06:57:19;7.30;;;5.70;;
3280;SDS011;1652;51.318;6.202;2023-04-23T06:59:47;5.27;;;4.97;;
3280;SDS011;1652;51.318;6.202;2023-04-23T07:02:14;7.40;;;4.57;;
3280;SDS011;1652;51.318;6.202;2023-04-23T07:04:41;4.80;;;4.60;;
3280;SDS011;1652;51.318;6.202;2023-04-23T07:07:08;4.97;;;4.77;;
3280;SDS011;1652;51.318;6.202;2023-04-23T07:09:36;8.67;;;4.80;;
3280;SDS011;1652;51.318;6.202;2023-04-23T07:12:02;5.70;;;5.20;;
3280;SDS011;1652;51.318;6.202;2023-04-23T07:14:30;4.53;;;4.33;;
3280;SDS011;1652;51.318;6.202;2023-04-23T07:16:57;5.23;;;4.67;;
3280;SDS011;1652;51.318;6.202;2023-04-23T07:19:24;4.60;;;4.20;;
3280;SDS011;1652;51.318;6.202;2023-04-23T07:21:52;4.90;;;4.53;;
3280;SDS011;1652;51.318;6.202;2023-04-23T07:24:19;5.67;;;3.90;;
3280;SDS011;1652;51.318;6.202;2023-04-23T07:26:46;5.30;;;4.80;;
3280;SDS011;1652;51.318;6.202;2023-04-23T07:29:13;6.43;;;3.87;;
3280;SDS011;1652;51.318;6.202;2023-04-23T07:31:40;5.23;;;3.70;;
3280;SDS011;1652;51.318;6.202;2023-04-23T07:34:07;3.30;;;2.97;;
3280;SDS011;1652;51.318;6.202;2023-04-23T07:36:35;4.03;;;3.83;;
3280;SDS011;1652;51.318;6.202;2023-04-23T07:39:02;3.60;;;3.40;;
3280;SDS011;1652;51.318;6.202;2023-04-23T07:41:31;4.83;;;3.10;;
3280;SDS011;1652;51.318;6.202;2023-04-23T07:43:58;4.57;;;3.80;;
3280;SDS011;1652;51.318;6.202;2023-04-23T07:46:25;6.37;;;3.47;;
3280;SDS011;1652;51.318;6.202;2023-04-23T07:48:52;7.13;;;3.97;;
3280;SDS011;1652;51.318;6.202;2023-04-23T07:51:19;5.10;;;4.00;;
3280;SDS011;1652;51.318;6.202;2023-04-23T07:53:47;3.77;;;2.93;;
3280;SDS011;1652;51.318;6.202;2023-04-23T07:56:16;3.50;;;2.87;;
3280;SDS011;1652;51.318;6.202;2023-04-23T07:58:43;3.13;;;2.60;;
3280;SDS011;1652;51.318;6.202;2023-04-23T08:01:10;3.63;;;3.17;;
3280;SDS011;1652;51.318;6.202;2023-04-23T08:03:37;14.80;;;3.50;;
3280;SDS011;1652;51.318;6.202;2023-04-23T08:06:04;5.00;;;2.90;;
3280;SDS011;1652;51.318;6.202;2023-04-23T08:08:31;2.93;;;2.73;;
3280;SDS011;1652;51.318;6.202;2023-04-23T08:10:58;3.03;;;2.83;;
3280;SDS011;1652;51.318;6.202;2023-04-23T08:13:25;4.63;;;2.90;;
3280;SDS011;1652;51.318;6.202;2023-04-23T08:15:52;5.43;;;3.27;;
3280;SDS011;1652;51.318;6.202;2023-04-23T08:18:19;6.30;;;2.77;;
3280;SDS011;1652;51.318;6.202;2023-04-23T08:20:45;4.40;;;3.47;;
3280;SDS011;1652;51.318;6.202;2023-04-23T08:23:12;5.83;;;2.83;;
3280;SDS011;1652;51.318;6.202;2023-04-23T08:25:39;5.70;;;2.80;;
3280;SDS011;1652;51.318;6.202;2023-04-23T08:28:06;3.60;;;3.10;;
3280;SDS011;1652;51.318;6.202;2023-04-23T08:30:33;6.00;;;4.47;;
3280;SDS011;1652;51.318;6.202;2023-04-23T08:33:00;8.97;;;8.03;;
3280;SDS011;1652;51.318;6.202;2023-04-23T08:35:27;8.10;;;5.73;;
3280;SDS011;1652;51.318;6.202;2023-04-23T08:37:54;13.10;;;7.90;;
3280;SDS011;1652;51.318;6.202;2023-04-23T08:40:21;11.33;;;5.87;;
3280;SDS011;1652;51.318;6.202;2023-04-23T08:42:49;4.63;;;3.70;;
3280;SDS011;1652;51.318;6.202;2023-04-23T08:45:21;7.07;;;2.87;;
3280;SDS011;1652;51.318;6.202;2023-04-23T08:47:48;7.13;;;3.60;;
3280;SDS011;1652;51.318;6.202;2023-04-23T08:50:16;3.50;;;2.13;;
3280;SDS011;1652;51.318;6.202;2023-04-23T08:52:45;5.83;;;2.63;;
3280;SDS011;1652;51.318;6.202;2023-04-23T08:55:15;2.77;;;2.47;;
3280;SDS011;1652;51.318;6.202;2023-04-23T08:57:44;3.50;;;2.03;;
3280;SDS011;1652;51.318;6.202;2023-04-23T09:00:12;3.80;;;1.93;;
3280;SDS011;1652;51.318;6.202;2023-04-23T09:02:42;6.50;;;2.27;;
3280;SDS011;1652;51.318;6.202;2023-04-23T09:05:10;2.60;;;2.17;;
3280;SDS011;1652;51.318;6.202;2023-04-23T09:07:38;3.50;;;2.10;;
3280;SDS011;1652;51.318;6.202;2023-04-23T09:10:06;8.20;;;2.10;;
3280;SDS011;1652;51.318;6.202;2023-04-23T09:12:35;4.70;;;2.60;;
3280;SDS011;1652;51.318;6.202;2023-04-23T09:17:31;7.03;;;3.13;;
3280;SDS011;1652;51.318;6.202;2023-04-23T09:19:59;10.03;;;2.90;;
3280;SDS011;1652;51.318;6.202;2023-04-23T09:22:42;10.70;;;2.17;;
3280;SDS011;1652;51.318;6.202;2023-04-23T09:25:15;3.90;;;1.90;;
3280;SDS011;1652;51.318;6.202;2023-04-23T09:27:43;9.23;;;2.07;;
3280;SDS011;1652;51.318;6.202;2023-04-23T09:30:11;4.63;;;2.10;;
3280;SDS011;1652;51.318;6.202;2023-04-23T09:32:39;5.13;;;2.90;;
3280;SDS011;1652;51.318;6.202;2023-04-23T09:35:08;6.07;;;3.83;;
3280;SDS011;1652;51.318;6.202;2023-04-23T09:37:37;5.47;;;1.50;;
3280;SDS011;1652;51.318;6.202;2023-04-23T09:40:08;7.63;;;4.50;;
3280;SDS011;1652;51.318;6.202;2023-04-23T09:42:38;2.90;;;2.20;;
3280;SDS011;1652;51.318;6.202;2023-04-23T09:45:06;5.50;;;2.30;;
3280;SDS011;1652;51.318;6.202;2023-04-23T09:47:37;9.83;;;8.87;;
3280;SDS011;1652;51.318;6.202;2023-04-23T09:50:05;23.03;;;15.23;;
3280;SDS011;1652;51.318;6.202;2023-04-23T09:52:36;5.00;;;3.20;;
3280;SDS011;1652;51.318;6.202;2023-04-23T09:55:04;7.80;;;1.90;;
3280;SDS011;1652;51.318;6.202;2023-04-23T09:57:35;7.50;;;2.10;;
3280;SDS011;1652;51.318;6.202;2023-04-23T10:00:16;4.33;;;2.23;;
3280;SDS011;1652;51.318;6.202;2023-04-23T10:02:45;3.73;;;1.53;;
3280;SDS011;1652;51.318;6.202;2023-04-23T10:07:50;2.87;;;2.67;;
3280;SDS011;1652;51.318;6.202;2023-04-23T10:10:18;2.40;;;1.63;;
3280;SDS011;1652;51.318;6.202;2023-04-23T10:12:45;3.07;;;1.73;;
3280;SDS011;1652;51.318;6.202;2023-04-23T10:15:21;2.63;;;1.87;;
3280;SDS011;1652;51.318;6.202;2023-04-23T10:17:50;5.50;;;1.97;;
3280;SDS011;1652;51.318;6.202;2023-04-23T10:20:19;7.40;;;2.17;;
3280;SDS011;1652;51.318;6.202;2023-04-23T10:22:49;3.93;;;1.47;;
3280;SDS011;1652;51.318;6.202;2023-04-23T10:25:19;9.00;;;2.93;;
3280;SDS011;1652;51.318;6.202;2023-04-23T10:27:48;3.10;;;1.83;;
3280;SDS011;1652;51.318;6.202;2023-04-23T10:30:19;8.70;;;1.87;;
3280;SDS011;1652;51.318;6.202;2023-04-23T10:32:48;4.13;;;1.83;;
3280;SDS011;1652;51.318;6.202;2023-04-23T10:35:15;2.17;;;1.70;;
3280;SDS011;1652;51.318;6.202;2023-04-23T10:37:43;7.40;;;2.00;;
3280;SDS011;1652;51.318;6.202;2023-04-23T10:40:12;4.63;;;2.07;;
3280;SDS011;1652;51.318;6.202;2023-04-23T10:42:41;3.40;;;1.67;;
3280;SDS011;1652;51.318;6.202;2023-04-23T10:45:13;1.67;;;1.57;;
3280;SDS011;1652;51.318;6.202;2023-04-23T10:47:46;2.70;;;1.33;;
3280;SDS011;1652;51.318;6.202;2023-04-23T10:50:21;4.13;;;1.50;;
3280;SDS011;1652;51.318;6.202;2023-04-23T10:52:50;2.83;;;1.60;;
3280;SDS011;1652;51.318;6.202;2023-04-23T10:55:20;3.47;;;2.10;;
3280;SDS011;1652;51.318;6.202;2023-04-23T11:00:51;4.50;;;1.70;;
3280;SDS011;1652;51.318;6.202;2023-04-23T11:06:13;3.30;;;1.60;;
3280;SDS011;1652;51.318;6.202;2023-04-23T11:09:01;2.47;;;1.40;;
3280;SDS011;1652;51.318;6.202;2023-04-23T11:11:53;4.97;;;1.97;;
3280;SDS011;1652;51.318;6.202;2023-04-23T11:14:21;2.20;;;1.70;;
3280;SDS011;1652;51.318;6.202;2023-04-23T11:17:02;3.90;;;1.40;;
3280;SDS011;1652;51.318;6.202;2023-04-23T11:19:34;7.67;;;4.40;;
3280;SDS011;1652;51.318;6.202;2023-04-23T11:22:06;6.73;;;5.60;;
3280;SDS011;1652;51.318;6.202;2023-04-23T11:24:45;9.33;;;7.43;;
3280;SDS011;1652;51.318;6.202;2023-04-23T11:27:16;4.67;;;4.23;;
3280;SDS011;1652;51.318;6.202;2023-04-23T11:29:44;3.53;;;1.40;;
3280;SDS011;1652;51.318;6.202;2023-04-23T11:32:12;4.77;;;2.90;;
3280;SDS011;1652;51.318;6.202;2023-04-23T11:34:42;1.60;;;1.17;;
3280;SDS011;1652;51.318;6.202;2023-04-23T11:37:11;2.27;;;1.50;;
3280;SDS011;1652;51.318;6.202;2023-04-23T11:39:44;2.63;;;1.70;;
3280;SDS011;1652;51.318;6.202;2023-04-23T11:42:13;1.43;;;1.33;;
3280;SDS011;1652;51.318;6.202;2023-04-23T11:44:41;3.07;;;1.67;;
3280;SDS011;1652;51.318;6.202;2023-04-23T11:47:10;4.83;;;1.83;;
3280;SDS011;1652;51.318;6.202;2023-04-23T11:49:38;2.90;;;1.73;;
3280;SDS011;1652;51.318;6.202;2023-04-23T11:52:08;1.87;;;1.73;;
3280;SDS011;1652;51.318;6.202;2023-04-23T11:54:36;3.97;;;1.43;;
3280;SDS011;1652;51.318;6.202;2023-04-23T11:57:06;2.00;;;1.00;;
3280;SDS011;1652;51.318;6.202;2023-04-23T11:59:33;7.20;;;3.60;;
3280;SDS011;1652;51.318;6.202;2023-04-23T12:02:00;10.67;;;8.43;;
3280;SDS011;1652;51.318;6.202;2023-04-23T12:04:28;3.13;;;1.90;;
3280;SDS011;1652;51.318;6.202;2023-04-23T12:06:57;4.07;;;1.70;;
3280;SDS011;1652;51.318;6.202;2023-04-23T12:09:25;4.53;;;1.60;;
3280;SDS011;1652;51.318;6.202;2023-04-23T12:11:53;4.50;;;2.20;;
3280;SDS011;1652;51.318;6.202;2023-04-23T12:14:26;1.40;;;1.30;;
3280;SDS011;1652;51.318;6.202;2023-04-23T12:16:54;11.47;;;2.07;;
3280;SDS011;1652;51.318;6.202;2023-04-23T12:22:00;7.00;;;6.03;;
3280;SDS011;1652;51.318;6.202;2023-04-23T12:24:30;3.60;;;1.97;;
3280;SDS011;1652;51.318;6.202;2023-04-23T12:27:12;3.53;;;1.10;;
3280;SDS011;1652;51.318;6.202;2023-04-23T12:29:41;3.70;;;1.40;;
3280;SDS011;1652;51.318;6.202;2023-04-23T12:32:14;3.40;;;1.10;;
3280;SDS011;1652;51.318;6.202;2023-04-23T12:34:54;7.00;;;1.97;;
3280;SDS011;1652;51.318;6.202;2023-04-23T12:37:25;2.10;;;1.27;;
3280;SDS011;1652;51.318;6.202;2023-04-23T12:39:54;2.50;;;1.40;;
3280;SDS011;1652;51.318;6.202;2023-04-23T12:42:22;4.40;;;1.20;;
3280;SDS011;1652;51.318;6.202;2023-04-23T12:44:49;3.73;;;1.13;;
3280;SDS011;1652;51.318;6.202;2023-04-23T12:47:16;1.43;;;0.90;;
3280;SDS011;1652;51.318;6.202;2023-04-23T12:49:45;3.13;;;1.50;;
3280;SDS011;1652;51.318;6.202;2023-04-23T12:52:14;1.80;;;1.17;;
3280;SDS011;1652;51.318;6.202;2023-04-23T12:54:41;6.40;;;1.20;;
3280;SDS011;1652;51.318;6.202;2023-04-23T12:57:10;3.97;;;1.47;;
3280;SDS011;1652;51.318;6.202;2023-04-23T12:59:38;4.10;;;1.30;;
3280;SDS011;1652;51.318;6.202;2023-04-23T13:02:05;1.90;;;1.63;;
3280;SDS011;1652;51.318;6.202;2023-04-23T13:04:33;3.20;;;1.17;;
3280;SDS011;1652;51.318;6.202;2023-04-23T13:07:01;1.40;;;1.17;;
3280;SDS011;1652;51.318;6.202;2023-04-23T13:09:28;2.83;;;1.10;;
3280;SDS011;1652;51.318;6.202;2023-04-23T13:11:56;3.47;;;1.60;;
3280;SDS011;1652;51.318;6.202;2023-04-23T13:14:22;1.47;;;0.97;;
3280;SDS011;1652;51.318;6.202;2023-04-23T13:16:49;1.63;;;1.50;;
3280;SDS011;1652;51.318;6.202;2023-04-23T13:19:18;4.13;;;1.33;;
3280;SDS011;1652;51.318;6.202;2023-04-23T13:21:44;3.00;;;1.70;;
3280;SDS011;1652;51.318;6.202;2023-04-23T13:24:12;3.43;;;1.33;;
3280;SDS011;1652;51.318;6.202;2023-04-23T13:26:39;3.70;;;0.90;;
3280;SDS011;1652;51.318;6.202;2023-04-23T13:29:06;2.70;;;2.17;;
3280;SDS011;1652;51.318;6.202;2023-04-23T13:31:32;1.80;;;0.87;;
3280;SDS011;1652;51.318;6.202;2023-04-23T13:33:59;2.47;;;2.27;;
3280;SDS011;1652;51.318;6.202;2023-04-23T13:36:28;4.77;;;4.30;;
3280;SDS011;1652;51.318;6.202;2023-04-23T13:38:55;1.47;;;1.30;;
3280;SDS011;1652;51.318;6.202;2023-04-23T13:41:22;2.13;;;1.80;;
3280;SDS011;1652;51.318;6.202;2023-04-23T13:43:49;2.33;;;2.13;;
3280;SDS011;1652;51.318;6.202;2023-04-23T13:46:16;2.73;;;1.50;;
3280;SDS011;1652;51.318;6.202;2023-04-23T13:48:45;3.90;;;1.30;;
3280;SDS011;1652;51.318;6.202;2023-04-23T13:51:11;3.30;;;1.17;;
3280;SDS011;1652;51.318;6.202;2023-04-23T13:53:58;1.83;;;0.83;;
3280;SDS011;1652;51.318;6.202;2023-04-23T13:56:25;20.93;;;13.73;;
3280;SDS011;1652;51.318;6.202;2023-04-23T13:58:52;5.33;;;2.80;;
3280;SDS011;1652;51.318;6.202;2023-04-23T14:01:44;2.17;;;1.50;;
3280;SDS011;1652;51.318;6.202;2023-04-23T14:04:12;13.60;;;1.60;;
3280;SDS011;1652;51.318;6.202;2023-04-23T14:06:39;1.67;;;1.10;;
3280;SDS011;1652;51.318;6.202;2023-04-23T14:09:06;3.70;;;1.10;;
3280;SDS011;1652;51.318;6.202;2023-04-23T14:11:34;6.30;;;1.80;;
3280;SDS011;1652;51.318;6.202;2023-04-23T14:14:01;3.10;;;1.00;;
3280;SDS011;1652;51.318;6.202;2023-04-23T14:16:28;2.80;;;1.17;;
3280;SDS011;1652;51.318;6.202;2023-04-23T14:18:55;12.87;;;7.83;;
3280;SDS011;1652;51.318;6.202;2023-04-23T14:21:22;17.60;;;11.53;;
3280;SDS011;1652;51.318;6.202;2023-04-23T14:23:50;63.43;;;42.40;;
3280;SDS011;1652;51.318;6.202;2023-04-23T14:29:01;4.90;;;1.57;;
3280;SDS011;1652;51.318;6.202;2023-04-23T14:31:50;4.03;;;1.50;;
3280;SDS011;1652;51.318;6.202;2023-04-23T14:34:17;1.43;;;1.33;;
3280;SDS011;1652;51.318;6.202;2023-04-23T14:36:44;6.53;;;2.07;;
3280;SDS011;1652;51.318;6.202;2023-04-23T14:39:14;24.30;;;16.80;;
3280;SDS011;1652;51.318;6.202;2023-04-23T14:41:41;17.87;;;12.40;;
3280;SDS011;1652;51.318;6.202;2023-04-23T14:44:08;11.23;;;7.00;;
3280;SDS011;1652;51.318;6.202;2023-04-23T14:46:35;5.33;;;3.63;;
3280;SDS011;1652;51.318;6.202;2023-04-23T14:49:02;1.70;;;1.60;;
3280;SDS011;1652;51.318;6.202;2023-04-23T14:51:30;2.10;;;1.50;;
3280;SDS011;1652;51.318;6.202;2023-04-23T14:53:57;2.93;;;2.30;;
3280;SDS011;1652;51.318;6.202;2023-04-23T14:56:24;1.10;;;1.00;;
3280;SDS011;1652;51.318;6.202;2023-04-23T14:58:52;4.07;;;1.93;;
3280;SDS011;1652;51.318;6.202;2023-04-23T15:01:22;2.93;;;2.20;;
3280;SDS011;1652;51.318;6.202;2023-04-23T15:03:49;4.70;;;1.93;;
3280;SDS011;1652;51.318;6.202;2023-04-23T15:06:18;4.90;;;2.27;;
3280;SDS011;1652;51.318;6.202;2023-04-23T15:08:45;10.80;;;4.20;;
3280;SDS011;1652;51.318;6.202;2023-04-23T15:11:12;14.83;;;4.23;;
3280;SDS011;1652;51.318;6.202;2023-04-23T15:16:23;6.40;;;3.40;;
3280;SDS011;1652;51.318;6.202;2023-04-23T15:19:13;3.10;;;2.60;;
3280;SDS011;1652;51.318;6.202;2023-04-23T15:21:43;4.27;;;2.53;;
3280;SDS011;1652;51.318;6.202;2023-04-23T15:24:11;9.57;;;2.70;;
3280;SDS011;1652;51.318;6.202;2023-04-23T15:26:38;4.73;;;1.80;;
3280;SDS011;1652;51.318;6.202;2023-04-23T15:29:06;3.00;;;2.17;;
3280;SDS011;1652;51.318;6.202;2023-04-23T15:31:36;5.30;;;2.60;;
3280;SDS011;1652;51.318;6.202;2023-04-23T15:34:03;6.40;;;2.57;;